createdAt,value
2023-05-05T00:02:13.550Z,9.45
2023-05-05T00:04:40.035Z,8.68
2023-05-05T00:07:06.583Z,10.37
2023-05-05T00:09:33.101Z,11.13
2023-05-05T00:11:59.555Z,10.88
2023-05-05T00:14:26.046Z,9.43
2023-05-05T00:16:52.590Z,9.13
2023-05-05T00:19:19.231Z,9.33
2023-05-05T00:21:45.935Z,7.65
2023-05-05T00:24:12.379Z,11.05
2023-05-05T00:26:38.823Z,8.57
2023-05-05T00:29:05.496Z,9.15
2023-05-05T00:31:32.213Z,9.67
2023-05-05T00:33:58.948Z,9.25
2023-05-05T00:36:25.522Z,9.23
2023-05-05T00:38:52.004Z,9.40
2023-05-05T00:41:18.413Z,10.45
2023-05-05T00:43:44.912Z,9.03
2023-05-05T00:46:25.772Z,8.98
2023-05-05T00:48:52.571Z,9.45
2023-05-05T00:51:20.446Z,8.00
2023-05-05T00:53:48.226Z,8.70
2023-05-05T00:56:16.909Z,8.40
2023-05-05T00:58:43.950Z,9.77
2023-05-05T01:01:11.716Z,12.25
2023-05-05T01:03:39.883Z,8.80
2023-05-05T01:06:38.993Z,11.10
2023-05-05T01:09:29.870Z,9.27
2023-05-05T01:12:14.975Z,8.73
2023-05-05T01:14:47.159Z,10.25
2023-05-05T01:17:18.977Z,11.82
2023-05-05T01:19:58.828Z,10.50
2023-05-05T01:22:31.764Z,11.27
2023-05-05T01:25:30.540Z,10.73
2023-05-05T01:28:06.148Z,9.95
2023-05-05T01:31:08.718Z,8.90
2023-05-05T01:33:42.132Z,10.30
2023-05-05T01:36:14.834Z,9.87
2023-05-05T01:38:45.008Z,11.43
2023-05-05T01:41:26.437Z,10.35
2023-05-05T01:43:56.952Z,10.13
2023-05-05T01:46:24.767Z,9.88
2023-05-05T01:48:52.655Z,14.47
2023-05-05T01:51:20.237Z,9.25
2023-05-05T01:53:46.699Z,9.25
2023-05-05T01:56:14.338Z,11.07
2023-05-05T01:58:44.969Z,11.02
2023-05-05T02:01:13.391Z,10.73
2023-05-05T02:03:41.426Z,11.10
2023-05-05T02:06:10.239Z,11.23
2023-05-05T02:08:39.203Z,9.88
2023-05-05T02:11:06.987Z,13.93
2023-05-05T02:13:33.715Z,12.03
2023-05-05T02:16:01.344Z,12.07
2023-05-05T02:18:27.986Z,11.10
2023-05-05T02:20:54.534Z,11.70
2023-05-05T02:23:20.980Z,16.60
2023-05-05T02:25:51.175Z,13.13
2023-05-05T02:28:22.550Z,12.20
2023-05-05T02:30:57.196Z,14.43
2023-05-05T02:33:26.080Z,14.85
2023-05-05T02:35:56.368Z,16.60
2023-05-05T02:38:27.533Z,15.13
2023-05-05T02:40:57.226Z,16.42
2023-05-05T02:43:25.724Z,16.08
2023-05-05T02:45:52.210Z,19.75
2023-05-05T02:48:18.604Z,15.57
2023-05-05T02:50:45.019Z,17.00
2023-05-05T02:53:11.611Z,16.63
2023-05-05T02:55:51.595Z,19.40
2023-05-05T02:58:29.099Z,17.58
2023-05-05T03:01:11.363Z,17.90
2023-05-05T03:03:49.922Z,15.77
2023-05-05T03:06:19.739Z,16.98
2023-05-05T03:09:18.222Z,19.50
2023-05-05T03:11:57.190Z,15.43
2023-05-05T03:14:27.232Z,16.67
2023-05-05T03:16:55.054Z,15.57
2023-05-05T03:19:23.246Z,18.08
2023-05-05T03:21:50.235Z,18.70
2023-05-05T03:24:18.313Z,19.60
2023-05-05T03:26:46.698Z,18.13
2023-05-05T03:29:13.984Z,14.33
2023-05-05T03:31:40.900Z,16.02
2023-05-05T03:34:08.259Z,14.63
2023-05-05T03:36:35.632Z,16.35
2023-05-05T03:39:02.050Z,14.68
2023-05-05T03:41:28.618Z,19.50
2023-05-05T03:43:55.046Z,16.75
2023-05-05T03:46:21.524Z,17.13
2023-05-05T03:48:48.012Z,16.60
2023-05-05T03:51:14.579Z,17.95
2023-05-05T03:53:41.296Z,21.43
2023-05-05T03:56:07.932Z,19.67
2023-05-05T03:58:34.514Z,19.38
2023-05-05T04:01:00.961Z,19.55
2023-05-05T04:03:27.652Z,20.35
2023-05-05T04:05:54.182Z,20.47
2023-05-05T04:08:20.696Z,21.05
2023-05-05T04:10:47.218Z,23.02
2023-05-05T04:13:13.689Z,20.33
2023-05-05T04:15:47.114Z,21.75
2023-05-05T04:18:13.615Z,21.90
2023-05-05T04:20:40.052Z,22.63
2023-05-05T04:23:06.673Z,25.60
2023-05-05T04:25:33.110Z,21.92
2023-05-05T04:27:59.511Z,23.20
2023-05-05T04:30:25.950Z,24.67
2023-05-05T04:32:52.432Z,22.02
2023-05-05T04:35:18.917Z,24.30
2023-05-05T04:37:45.365Z,24.75
2023-05-05T04:40:12.084Z,21.52
2023-05-05T04:42:38.504Z,22.07
2023-05-05T04:45:05.246Z,22.95
2023-05-05T04:47:31.684Z,25.23
2023-05-05T04:49:58.102Z,25.17
2023-05-05T04:52:24.531Z,22.48
2023-05-05T04:54:51.081Z,24.77
2023-05-05T04:57:17.511Z,26.48
2023-05-05T04:59:43.921Z,25.08
2023-05-05T05:02:10.388Z,26.70
2023-05-05T05:04:36.815Z,26.73
2023-05-05T05:07:03.270Z,26.90
2023-05-05T05:09:29.722Z,25.90
2023-05-05T05:12:00.218Z,27.73
2023-05-05T05:14:26.634Z,23.60
2023-05-05T05:16:53.093Z,27.52
2023-05-05T05:19:19.616Z,26.33
2023-05-05T05:21:46.035Z,24.25
2023-05-05T05:24:12.458Z,25.98
2023-05-05T05:26:39.066Z,28.50
2023-05-05T05:29:05.508Z,29.65
2023-05-05T05:31:33.349Z,28.23
2023-05-05T05:33:59.951Z,27.08
2023-05-05T05:36:26.379Z,26.92
2023-05-05T05:38:52.822Z,25.60
2023-05-05T05:41:19.326Z,29.75
2023-05-05T05:43:45.710Z,29.30
2023-05-05T05:46:12.245Z,29.67
2023-05-05T05:48:38.670Z,28.90
2023-05-05T05:51:05.142Z,33.30
2023-05-05T05:53:31.569Z,26.52
2023-05-05T05:55:57.997Z,28.70
2023-05-05T05:58:24.397Z,27.50
2023-05-05T06:00:50.863Z,26.92
2023-05-05T06:03:17.610Z,26.58
2023-05-05T06:05:45.310Z,25.90
2023-05-05T06:08:11.996Z,30.73
2023-05-05T06:10:38.443Z,25.63
2023-05-05T06:13:04.881Z,26.08
2023-05-05T06:15:31.377Z,26.48
2023-05-05T06:17:57.794Z,23.42
2023-05-05T06:20:24.223Z,25.20
2023-05-05T06:22:50.691Z,24.17
2023-05-05T06:25:17.546Z,22.48
2023-05-05T06:27:43.977Z,21.83
2023-05-05T06:30:10.925Z,25.30
2023-05-05T06:32:37.491Z,21.60
2023-05-05T06:35:04.282Z,23.40
2023-05-05T06:37:30.700Z,24.55
2023-05-05T06:39:57.123Z,20.13
2023-05-05T06:42:23.600Z,22.88
2023-05-05T06:44:50.153Z,22.50
2023-05-05T06:47:16.586Z,19.63
2023-05-05T06:49:43.084Z,20.75
2023-05-05T06:52:09.494Z,22.33
2023-05-05T06:54:35.955Z,19.92
2023-05-05T06:57:02.402Z,19.60
2023-05-05T06:59:28.842Z,23.58
2023-05-05T07:01:56.516Z,22.80
2023-05-05T07:04:23.163Z,19.05
2023-05-05T07:06:49.601Z,18.73
2023-05-05T07:09:17.096Z,19.80
2023-05-05T07:11:44.131Z,18.05
2023-05-05T07:14:10.548Z,15.57
2023-05-05T07:16:37.192Z,14.27
2023-05-05T07:19:03.741Z,16.02
2023-05-05T07:21:30.178Z,18.50
2023-05-05T07:23:56.794Z,13.20
2023-05-05T07:26:23.421Z,12.52
2023-05-05T07:28:49.913Z,15.55
2023-05-05T07:31:16.331Z,15.30
2023-05-05T07:33:42.793Z,15.73
2023-05-05T07:36:09.303Z,15.13
2023-05-05T07:38:35.801Z,14.68
2023-05-05T07:41:02.572Z,11.85
2023-05-05T07:43:29.166Z,12.30
2023-05-05T07:45:55.615Z,15.33
2023-05-05T07:48:22.092Z,12.07
2023-05-05T07:50:48.689Z,12.70
2023-05-05T07:53:15.333Z,14.88
2023-05-05T07:55:42.108Z,14.48
2023-05-05T07:58:08.665Z,13.93
2023-05-05T08:00:35.208Z,11.90
2023-05-05T08:03:01.757Z,10.52
2023-05-05T08:05:28.342Z,12.18
2023-05-05T08:07:54.771Z,13.30
2023-05-05T08:10:21.346Z,11.00
2023-05-05T08:12:48.091Z,8.75
2023-05-05T08:15:14.578Z,9.55
2023-05-05T08:17:45.008Z,10.20
2023-05-05T08:20:11.981Z,11.77
2023-05-05T08:22:38.434Z,8.03
2023-05-05T08:25:05.466Z,11.73
2023-05-05T08:27:32.117Z,12.20
2023-05-05T08:29:58.535Z,14.75
2023-05-05T08:32:25.355Z,14.80
2023-05-05T08:34:52.876Z,10.77
2023-05-05T08:37:19.338Z,11.52
2023-05-05T08:39:45.772Z,12.10
2023-05-05T08:42:17.518Z,14.38
2023-05-05T08:44:48.879Z,11.50
2023-05-05T08:47:15.796Z,17.80
2023-05-05T08:49:46.280Z,22.33
2023-05-05T08:52:18.596Z,12.57
2023-05-05T08:54:57.382Z,11.48
2023-05-05T08:57:43.897Z,9.73
2023-05-05T09:00:12.345Z,7.57
2023-05-05T09:02:39.463Z,8.15
2023-05-05T09:05:07.171Z,7.13
2023-05-05T09:07:34.703Z,7.85
2023-05-05T09:10:04.121Z,6.97
2023-05-05T09:12:31.180Z,7.57
2023-05-05T09:14:59.315Z,6.85
2023-05-05T09:17:26.869Z,6.13
2023-05-05T09:20:01.965Z,7.65
2023-05-05T09:22:39.409Z,6.47
2023-05-05T09:25:08.681Z,10.53
2023-05-05T09:27:43.789Z,10.38
2023-05-05T09:30:12.142Z,12.80
2023-05-05T09:32:54.277Z,10.60
2023-05-05T09:35:22.139Z,30.63
2023-05-05T09:37:48.732Z,18.03
2023-05-05T09:40:18.851Z,16.08
2023-05-05T09:42:45.815Z,15.23
2023-05-05T09:45:18.465Z,17.30
2023-05-05T09:47:49.317Z,17.05
2023-05-05T09:50:16.977Z,12.97
2023-05-05T09:52:53.740Z,14.30
2023-05-05T09:55:20.198Z,13.75
2023-05-05T09:57:46.658Z,12.30
2023-05-05T10:00:13.588Z,13.70
2023-05-05T10:02:40.223Z,12.57
2023-05-05T10:05:11.779Z,11.02
2023-05-05T10:07:39.729Z,12.38
2023-05-05T10:10:10.761Z,10.82
2023-05-05T10:12:38.252Z,15.18
2023-05-05T10:15:06.511Z,12.10
2023-05-05T10:17:36.979Z,14.82
2023-05-05T10:20:04.465Z,13.75
2023-05-05T10:22:35.043Z,9.73
2023-05-05T10:25:13.089Z,9.75
2023-05-05T10:27:52.962Z,11.53
2023-05-05T10:30:32.497Z,7.72
2023-05-05T10:35:54.381Z,9.40
2023-05-05T10:38:24.637Z,8.82
2023-05-05T10:40:52.394Z,7.37
2023-05-05T10:43:18.968Z,9.48
2023-05-05T10:45:46.014Z,12.90
2023-05-05T10:48:31.220Z,12.85
2023-05-05T10:51:08.076Z,10.02
2023-05-05T10:53:58.633Z,10.13
2023-05-05T10:56:32.655Z,10.63
2023-05-05T10:59:00.589Z,11.98
2023-05-05T11:01:35.321Z,11.10
2023-05-05T11:04:22.312Z,12.43
2023-05-05T11:07:13.762Z,11.43
2023-05-05T11:09:58.683Z,11.73
2023-05-05T11:12:25.163Z,12.40
2023-05-05T11:15:27.129Z,10.20
2023-05-05T11:17:57.574Z,11.43
2023-05-05T11:20:36.341Z,10.17
2023-05-05T11:23:02.858Z,10.73
2023-05-05T11:25:35.308Z,11.38
2023-05-05T11:28:13.694Z,12.95
2023-05-05T11:30:55.517Z,12.07
2023-05-05T11:33:30.985Z,13.80
2023-05-05T11:35:58.383Z,12.68
2023-05-05T11:38:46.624Z,12.48
2023-05-05T11:41:19.069Z,10.57
2023-05-05T11:43:45.806Z,11.70
2023-05-05T11:46:16.937Z,13.93
2023-05-05T11:48:47.098Z,16.02
2023-05-05T11:51:15.093Z,12.48
2023-05-05T11:53:42.979Z,16.85
2023-05-05T11:56:11.108Z,13.85
2023-05-05T11:58:38.420Z,13.77
2023-05-05T12:01:08.386Z,12.98
2023-05-05T12:03:36.697Z,11.50
2023-05-05T12:06:04.668Z,12.38
2023-05-05T12:08:40.618Z,14.23
2023-05-05T12:11:09.003Z,48.73
2023-05-05T12:13:35.614Z,41.83
2023-05-05T12:16:12.538Z,45.20
2023-05-05T12:18:39.776Z,8.88
2023-05-05T12:21:19.623Z,8.30
2023-05-05T12:23:46.724Z,8.23
2023-05-05T12:26:25.354Z,7.32
2023-05-05T12:28:51.925Z,6.53
2023-05-05T12:31:18.455Z,5.30
2023-05-05T12:33:45.915Z,6.15
2023-05-05T12:36:12.960Z,5.97
2023-05-05T12:38:39.557Z,6.85
2023-05-05T12:41:06.370Z,7.85
2023-05-05T12:43:34.604Z,6.90
2023-05-05T12:46:05.353Z,6.20
2023-05-05T12:48:32.816Z,7.17
2023-05-05T12:51:17.341Z,8.50
2023-05-05T12:53:45.822Z,5.38
2023-05-05T12:56:32.070Z,5.18
2023-05-05T12:58:59.071Z,6.30
2023-05-05T13:01:25.672Z,5.37
2023-05-05T13:04:09.003Z,4.85
2023-05-05T13:06:36.227Z,4.40
2023-05-05T13:09:02.857Z,5.80
2023-05-05T13:11:29.337Z,4.30
2023-05-05T13:13:56.327Z,5.87
2023-05-05T13:16:22.866Z,6.40
2023-05-05T13:18:50.351Z,5.95
2023-05-05T13:21:16.793Z,6.80
2023-05-05T13:23:43.861Z,4.70
2023-05-05T13:26:11.107Z,5.47
2023-05-05T13:28:37.735Z,4.40
2023-05-05T13:31:04.507Z,4.00
2023-05-05T13:33:33.841Z,4.18
2023-05-05T13:36:01.502Z,5.18
2023-05-05T13:38:27.972Z,3.70
2023-05-05T13:40:54.421Z,5.85
2023-05-05T13:43:20.889Z,4.28
2023-05-05T13:45:47.442Z,4.13
2023-05-05T13:48:13.827Z,4.97
2023-05-05T13:50:40.274Z,4.30
2023-05-05T13:53:06.806Z,4.88
2023-05-05T13:55:33.329Z,4.20
2023-05-05T13:57:59.787Z,4.60
2023-05-05T14:00:26.440Z,4.32
2023-05-05T14:02:52.961Z,5.60
2023-05-05T14:05:19.961Z,5.30
2023-05-05T14:07:47.637Z,4.35
2023-05-05T14:10:14.065Z,5.75
2023-05-05T14:12:40.555Z,6.65
2023-05-05T14:15:07.840Z,4.30
2023-05-05T14:17:34.679Z,5.93
2023-05-05T14:20:01.329Z,4.75
2023-05-05T14:22:27.816Z,5.20
2023-05-05T14:24:54.282Z,5.88
2023-05-05T14:27:20.771Z,14.70
2023-05-05T14:29:47.201Z,6.47
2023-05-05T14:32:13.769Z,6.00
2023-05-05T14:34:40.229Z,5.72
2023-05-05T14:37:06.667Z,4.57
2023-05-05T14:39:33.138Z,5.53
2023-05-05T14:41:59.551Z,5.35
2023-05-05T14:44:26.039Z,5.97
2023-05-05T14:46:52.531Z,4.90
2023-05-05T14:49:18.978Z,6.00
2023-05-05T14:51:45.440Z,5.70
2023-05-05T14:54:20.481Z,4.88
2023-05-05T14:56:53.635Z,5.28
2023-05-05T14:59:20.086Z,7.43
2023-05-05T15:01:46.590Z,5.95
2023-05-05T15:04:12.987Z,5.67
2023-05-05T15:06:39.512Z,6.20
2023-05-05T15:09:05.965Z,5.95
2023-05-05T15:11:32.374Z,5.45
2023-05-05T15:13:58.822Z,6.25
2023-05-05T15:16:25.293Z,6.00
2023-05-05T15:18:51.908Z,6.93
2023-05-05T15:21:18.542Z,7.13
2023-05-05T15:23:45.022Z,7.40
2023-05-05T15:26:11.545Z,8.60
2023-05-05T15:28:38.013Z,7.50
2023-05-05T15:31:04.523Z,8.18
2023-05-05T15:33:30.947Z,10.98
2023-05-05T15:35:57.628Z,12.05
2023-05-05T15:38:24.091Z,9.57
2023-05-05T15:40:50.548Z,13.67
2023-05-05T15:43:16.975Z,15.93
2023-05-05T15:45:43.400Z,14.57
2023-05-05T15:48:09.857Z,12.43
2023-05-05T15:50:36.293Z,12.70
2023-05-05T15:53:02.803Z,11.70
2023-05-05T15:55:29.191Z,13.13
2023-05-05T15:57:55.794Z,11.27
2023-05-05T16:00:22.628Z,12.98
2023-05-05T16:02:49.196Z,12.70
2023-05-05T16:05:15.613Z,12.80
2023-05-05T16:07:42.070Z,13.10
2023-05-05T16:10:09.094Z,11.30
2023-05-05T16:12:35.571Z,14.18
2023-05-05T16:15:02.033Z,12.18
2023-05-05T16:17:28.583Z,14.40
2023-05-05T16:19:55.023Z,12.88
2023-05-05T16:22:21.514Z,12.10
2023-05-05T16:24:47.916Z,14.07
2023-05-05T16:27:14.382Z,13.60
2023-05-05T16:29:40.954Z,13.57
2023-05-05T16:32:07.385Z,12.50
2023-05-05T16:34:33.822Z,12.88
2023-05-05T16:37:00.343Z,13.25
2023-05-05T16:39:26.780Z,13.38
2023-05-05T16:41:53.206Z,12.37
2023-05-05T16:44:19.710Z,14.68
2023-05-05T16:46:46.206Z,11.82
2023-05-05T16:49:12.626Z,13.52
2023-05-05T16:51:39.165Z,14.68
2023-05-05T16:54:05.662Z,12.17
2023-05-05T16:56:32.108Z,14.18
2023-05-05T16:58:58.550Z,14.55
2023-05-05T17:01:25.014Z,13.30
2023-05-05T17:03:51.505Z,14.93
2023-05-05T17:06:17.935Z,15.23
2023-05-05T17:08:44.462Z,13.40
2023-05-05T17:11:11.812Z,13.43
2023-05-05T17:13:38.564Z,14.27
2023-05-05T17:16:05.133Z,13.75
2023-05-05T17:18:31.558Z,14.40
2023-05-05T17:20:57.977Z,12.38
2023-05-05T17:23:24.443Z,13.75
2023-05-05T17:25:50.846Z,14.45
2023-05-05T17:28:17.269Z,14.48
2023-05-05T17:30:43.819Z,13.63
2023-05-05T17:33:10.312Z,15.35
2023-05-05T17:35:37.579Z,13.35
2023-05-05T17:38:04.016Z,14.02
2023-05-05T17:40:30.414Z,14.57
2023-05-05T17:42:56.884Z,13.83
2023-05-05T17:45:23.916Z,13.65
2023-05-05T17:47:50.499Z,13.27
2023-05-05T17:50:17.236Z,14.38
2023-05-05T17:52:43.689Z,12.60
2023-05-05T17:55:10.578Z,12.80
2023-05-05T17:57:37.156Z,13.90
2023-05-05T18:00:07.777Z,15.38
2023-05-05T18:02:35.494Z,14.45
2023-05-05T18:05:03.013Z,15.07
2023-05-05T18:07:29.422Z,14.87
2023-05-05T18:09:55.836Z,15.32
2023-05-05T18:12:22.312Z,16.05
2023-05-05T18:14:48.763Z,17.55
2023-05-05T18:17:15.257Z,16.77
2023-05-05T18:19:41.658Z,15.83
2023-05-05T18:22:08.156Z,14.63
2023-05-05T18:24:34.622Z,14.85
2023-05-05T18:27:01.109Z,14.77
2023-05-05T18:29:27.547Z,16.52
2023-05-05T18:31:54.186Z,17.57
2023-05-05T18:34:20.827Z,14.88
2023-05-05T18:36:48.338Z,17.33
2023-05-05T18:39:14.913Z,17.65
2023-05-05T18:41:41.423Z,16.48
2023-05-05T18:44:07.982Z,15.83
2023-05-05T18:46:34.820Z,19.08
2023-05-05T18:49:01.530Z,16.98
2023-05-05T18:51:27.981Z,17.92
2023-05-05T18:53:54.524Z,16.90
2023-05-05T18:56:20.927Z,17.77
2023-05-05T18:58:47.561Z,19.58
2023-05-05T19:01:14.058Z,17.20
2023-05-05T19:03:40.494Z,18.40
2023-05-05T19:06:07.216Z,19.98
2023-05-05T19:08:33.750Z,19.87
2023-05-05T19:11:00.270Z,19.55
2023-05-05T19:13:26.790Z,19.48
2023-05-05T19:15:54.748Z,21.13
2023-05-05T19:18:21.308Z,19.80
2023-05-05T19:20:47.748Z,19.33
2023-05-05T19:23:14.195Z,23.10
2023-05-05T19:25:40.702Z,21.35
2023-05-05T19:28:07.224Z,20.98
2023-05-05T19:30:33.674Z,21.73
2023-05-05T19:33:00.242Z,20.13
2023-05-05T19:35:26.929Z,21.17
2023-05-05T19:37:53.783Z,21.50
2023-05-05T19:40:20.224Z,21.42
2023-05-05T19:42:46.666Z,20.30
2023-05-05T19:45:13.220Z,20.90
2023-05-05T19:47:39.665Z,22.20
2023-05-05T19:50:06.517Z,21.15
2023-05-05T19:52:33.066Z,22.17
2023-05-05T19:54:59.523Z,21.23
2023-05-05T19:57:26.017Z,22.50
2023-05-05T19:59:52.531Z,22.75
2023-05-05T20:02:18.988Z,23.92
2023-05-05T20:04:45.415Z,21.15
2023-05-05T20:07:11.837Z,20.95
2023-05-05T20:09:38.322Z,22.97
2023-05-05T20:12:05.215Z,19.95
2023-05-05T20:14:31.666Z,20.95
2023-05-05T20:16:58.145Z,23.15
2023-05-05T20:19:24.683Z,25.30
2023-05-05T20:21:51.111Z,21.93
2023-05-05T20:24:17.651Z,23.48
2023-05-05T20:26:44.122Z,24.10
2023-05-05T20:29:10.566Z,22.58
2023-05-05T20:31:37.360Z,25.42
2023-05-05T20:34:03.888Z,22.00
2023-05-05T20:36:30.321Z,21.40
2023-05-05T20:38:56.737Z,22.88
2023-05-05T20:41:23.179Z,25.48
2023-05-05T20:43:49.547Z,22.70
2023-05-05T20:46:16.093Z,23.33
2023-05-05T20:48:43.331Z,24.05
2023-05-05T20:51:09.887Z,21.58
2023-05-05T20:53:36.399Z,23.67
2023-05-05T20:56:05.127Z,24.70
2023-05-05T20:58:32.748Z,25.47
2023-05-05T21:00:59.223Z,26.15
2023-05-05T21:03:25.763Z,23.02
2023-05-05T21:05:52.283Z,25.00
2023-05-05T21:08:18.766Z,26.35
2023-05-05T21:10:45.301Z,25.67
2023-05-05T21:13:11.805Z,25.30
2023-05-05T21:15:38.366Z,26.83
2023-05-05T21:18:04.962Z,27.50
2023-05-05T21:20:31.483Z,30.05
2023-05-05T21:22:57.903Z,32.07
2023-05-05T21:25:25.731Z,25.25
2023-05-05T21:27:52.206Z,32.33
2023-05-05T21:30:18.712Z,30.75
2023-05-05T21:32:45.285Z,29.60
2023-05-05T21:35:11.942Z,28.63
2023-05-05T21:37:39.081Z,29.48
2023-05-05T21:40:07.393Z,32.75
2023-05-05T21:42:33.921Z,32.80
2023-05-05T21:45:00.323Z,29.67
2023-05-05T21:47:27.377Z,31.30
2023-05-05T21:49:53.898Z,32.00
2023-05-05T21:52:20.375Z,32.53
2023-05-05T21:54:46.855Z,29.42
2023-05-05T21:57:13.352Z,30.85
2023-05-05T21:59:39.783Z,33.37
2023-05-05T22:02:06.223Z,34.03
2023-05-05T22:04:32.602Z,30.80
2023-05-05T22:06:59.093Z,34.22
2023-05-05T22:09:25.546Z,32.30
2023-05-05T22:11:52.183Z,32.63
2023-05-05T22:14:18.726Z,34.00
2023-05-05T22:16:45.348Z,37.63
2023-05-05T22:19:11.900Z,36.03
2023-05-05T22:21:38.365Z,37.63
2023-05-05T22:24:05.310Z,38.57
2023-05-05T22:26:32.040Z,37.85
2023-05-05T22:28:58.535Z,37.75
2023-05-05T22:31:25.022Z,39.38
2023-05-05T22:33:51.473Z,38.45
2023-05-05T22:36:17.840Z,41.63
2023-05-05T22:38:44.304Z,45.05
2023-05-05T22:41:10.791Z,40.78
2023-05-05T22:43:37.328Z,42.28
2023-05-05T22:46:03.972Z,42.28
2023-05-05T22:48:30.402Z,43.07
2023-05-05T22:50:56.825Z,45.08
2023-05-05T22:53:23.287Z,47.97
2023-05-05T22:55:49.754Z,47.72
2023-05-05T22:58:16.273Z,42.72
2023-05-05T23:00:42.757Z,39.70
2023-05-05T23:03:09.667Z,47.40
2023-05-05T23:05:36.155Z,41.03
2023-05-05T23:08:02.604Z,45.33
2023-05-05T23:10:29.223Z,41.28
2023-05-05T23:12:55.737Z,40.33
2023-05-05T23:15:22.295Z,40.60
2023-05-05T23:17:48.724Z,43.40
2023-05-05T23:20:15.304Z,46.20
2023-05-05T23:22:41.849Z,46.13
2023-05-05T23:25:09.027Z,42.20
2023-05-05T23:27:35.658Z,45.00
2023-05-05T23:30:02.273Z,43.83
2023-05-05T23:32:28.800Z,45.90
2023-05-05T23:34:55.383Z,41.50
2023-05-05T23:37:21.848Z,46.60
2023-05-05T23:39:48.469Z,46.58
2023-05-05T23:42:14.932Z,42.38
2023-05-05T23:44:41.370Z,44.05
2023-05-05T23:47:07.783Z,44.42
2023-05-05T23:49:34.518Z,43.17
2023-05-05T23:52:00.973Z,41.95
2023-05-05T23:54:27.430Z,43.83
2023-05-05T23:56:53.979Z,42.85
2023-05-05T23:59:20.466Z,44.05
